Time;durP1;ratioP1;P1;durP2;ratioP2;P2;SDS_P1;SDS_P2;PMS_P1;PMS_P2;Temp;Humidity;BMP_temperature;BMP_pressure;BME280_temperature;BME280_humidity;BME280_pressure;Samples;Min_cycle;Max_cycle;Signal;HPM_P1;HPM_P2
2021/09/13 00:00:58;;;;;;;2.83;2.63;;;12.10;99.90;;;;;;483081;246;28102;-70
2021/09/13 00:02:59;;;;;;;3.10;2.90;;;12.10;99.90;;;;;;483191;246;28550;-70
2021/09/13 00:05:01;;;;;;;2.73;2.53;;;12.10;99.90;;;;;;483179;246;29471;-70
2021/09/13 00:07:02;;;;;;;2.70;2.50;;;12.00;99.90;;;;;;483155;246;28727;-70
2021/09/13 00:09:03;;;;;;;2.87;2.60;;;12.00;99.90;;;;;;483177;246;28759;-69
2021/09/13 00:11:04;;;;;;;2.60;2.50;;;12.10;99.90;;;;;;483140;246;28388;-70
2021/09/13 00:13:06;;;;;;;3.67;2.80;;;12.10;99.90;;;;;;483204;246;28341;-70
2021/09/13 00:15:07;;;;;;;2.87;2.67;;;12.10;99.90;;;;;;483222;246;28226;-70
2021/09/13 00:17:08;;;;;;;2.70;2.50;;;12.10;99.90;;;;;;483203;246;28351;-70
2021/09/13 00:19:09;;;;;;;3.27;2.60;;;12.10;99.90;;;;;;483215;246;28111;-70
2021/09/13 00:21:11;;;;;;;2.70;2.50;;;12.10;99.90;;;;;;483175;246;28344;-70
2021/09/13 00:23:12;;;;;;;2.53;2.43;;;12.10;99.90;;;;;;483213;246;28138;-70
2021/09/13 00:25:13;;;;;;;2.70;2.50;;;12.10;99.90;;;;;;483187;246;28235;-70
2021/09/13 00:27:14;;;;;;;3.10;2.90;;;12.10;99.90;;;;;;483222;246;28114;-70
2021/09/13 00:29:16;;;;;;;2.70;2.50;;;12.00;99.90;;;;;;483199;246;28869;-70
2021/09/13 00:31:17;;;;;;;2.20;2.10;;;12.00;99.90;;;;;;483159;246;28809;-70
2021/09/13 00:33:18;;;;;;;2.30;2.20;;;12.00;99.90;;;;;;483216;246;28921;-69
2021/09/13 00:35:19;;;;;;;3.00;2.80;;;12.00;99.90;;;;;;483090;246;28634;-70
2021/09/13 00:37:21;;;;;;;2.63;2.43;;;12.00;99.90;;;;;;483200;246;28130;-69
2021/09/13 00:39:22;;;;;;;2.60;2.40;;;11.90;99.90;;;;;;483211;246;28099;-69
2021/09/13 00:41:23;;;;;;;2.40;2.30;;;11.80;99.90;;;;;;483158;246;28144;-70
2021/09/13 00:43:24;;;;;;;2.70;2.50;;;11.80;99.90;;;;;;483205;246;28246;-70
2021/09/13 00:45:26;;;;;;;2.60;2.40;;;11.80;99.90;;;;;;483216;246;28132;-70
2021/09/13 00:47:27;;;;;;;2.40;2.20;;;11.90;99.90;;;;;;483248;246;28247;-70
2021/09/13 00:49:28;;;;;;;2.40;2.30;;;11.80;99.90;;;;;;483220;246;28196;-70
2021/09/13 00:51:29;;;;;;;2.63;2.43;;;11.80;99.90;;;;;;483196;246;28248;-70
2021/09/13 00:53:31;;;;;;;2.23;2.13;;;11.70;99.90;;;;;;483196;246;28589;-69
2021/09/13 00:55:32;;;;;;;2.87;2.67;;;11.70;99.90;;;;;;483171;246;28663;-70
2021/09/13 00:57:33;;;;;;;2.17;2.07;;;11.70;99.90;;;;;;483189;246;28547;-70
2021/09/13 00:59:34;;;;;;;2.33;2.23;;;11.70;99.90;;;;;;483191;246;28675;-70
2021/09/13 01:01:36;;;;;;;2.90;2.70;;;11.70;99.90;;;;;;483171;246;28251;-70
2021/09/13 01:03:37;;;;;;;2.40;2.30;;;11.70;99.90;;;;;;483185;246;28102;-70
2021/09/13 01:05:38;;;;;;;3.40;2.50;;;11.60;99.90;;;;;;483190;246;28067;-70
2021/09/13 01:07:39;;;;;;;2.80;2.60;;;11.60;99.90;;;;;;483212;246;28266;-69
2021/09/13 01:09:41;;;;;;;2.30;2.10;;;11.50;99.90;;;;;;483202;246;28229;-70
2021/09/13 01:11:42;;;;;;;2.60;2.40;;;11.50;99.90;;;;;;483205;246;28141;-70
2021/09/13 01:13:43;;;;;;;2.67;2.50;;;11.50;99.90;;;;;;483227;246;28140;-70
2021/09/13 01:15:44;;;;;;;2.77;2.57;;;11.40;99.90;;;;;;483236;246;28296;-70
2021/09/13 01:17:46;;;;;;;2.80;2.60;;;11.40;99.90;;;;;;483209;246;27971;-70
2021/09/13 01:19:47;;;;;;;2.60;2.40;;;11.40;99.90;;;;;;483180;246;28549;-70
2021/09/13 01:21:48;;;;;;;2.93;2.73;;;11.40;99.90;;;;;;483205;246;28527;-70
2021/09/13 01:23:49;;;;;;;2.60;2.40;;;11.40;99.90;;;;;;483228;246;28556;-70
2021/09/13 01:25:51;;;;;;;3.17;2.90;;;11.30;99.90;;;;;;483216;246;28100;-70
2021/09/13 01:27:52;;;;;;;2.60;2.50;;;11.40;99.90;;;;;;483239;246;27888;-70
2021/09/13 01:29:53;;;;;;;2.47;2.33;;;11.30;99.90;;;;;;483210;246;28302;-70
2021/09/13 01:31:54;;;;;;;2.93;2.73;;;11.40;99.90;;;;;;483205;246;27852;-70
2021/09/13 01:33:56;;;;;;;2.60;2.40;;;11.40;99.90;;;;;;483264;246;28106;-70
2021/09/13 01:35:57;;;;;;;2.50;2.40;;;11.30;99.90;;;;;;483200;246;27979;-70
2021/09/13 01:37:58;;;;;;;2.67;2.47;;;11.30;99.90;;;;;;483137;246;28210;-70
2021/09/13 01:39:59;;;;;;;2.40;2.30;;;11.30;99.90;;;;;;483121;246;28053;-70
2021/09/13 01:42:01;;;;;;;2.20;2.10;;;11.30;99.90;;;;;;482999;246;28358;-69
2021/09/13 01:44:02;;;;;;;2.50;2.30;;;11.30;99.90;;;;;;483138;246;28769;-69
2021/09/13 01:46:03;;;;;;;3.00;2.80;;;11.30;99.90;;;;;;483229;246;28428;-70
2021/09/13 01:48:05;;;;;;;2.80;2.60;;;11.30;99.90;;;;;;483233;246;28601;-70
2021/09/13 01:50:06;;;;;;;2.40;2.20;;;11.30;99.90;;;;;;483214;246;28470;-69
2021/09/13 01:52:07;;;;;;;3.00;2.43;;;11.30;99.90;;;;;;483203;246;28002;-69
2021/09/13 01:54:08;;;;;;;3.10;2.47;;;11.20;99.90;;;;;;483229;246;28137;-70
2021/09/13 01:56:10;;;;;;;2.30;2.20;;;11.20;99.90;;;;;;483232;246;28092;-70
2021/09/13 01:58:11;;;;;;;2.63;2.43;;;11.20;99.90;;;;;;483294;246;28138;-69
2021/09/13 02:00:12;;;;;;;2.50;2.30;;;11.20;99.90;;;;;;483212;246;28094;-70
2021/09/13 02:02:13;;;;;;;2.30;2.20;;;11.20;99.90;;;;;;483234;246;28222;-70
2021/09/13 02:04:15;;;;;;;2.50;2.37;;;11.20;99.90;;;;;;483233;246;28033;-70
2021/09/13 02:06:16;;;;;;;2.80;2.60;;;11.20;99.90;;;;;;483245;246;28122;-70
2021/09/13 02:08:17;;;;;;;2.40;2.30;;;11.20;99.90;;;;;;483224;246;28689;-69
2021/09/13 02:10:18;;;;;;;2.43;2.33;;;11.20;99.90;;;;;;483213;246;28547;-70
2021/09/13 02:12:20;;;;;;;2.50;2.30;;;11.20;99.90;;;;;;483219;246;28585;-70
2021/09/13 02:14:21;;;;;;;2.77;2.57;;;11.10;99.90;;;;;;483242;246;28552;-70
2021/09/13 02:16:22;;;;;;;2.23;2.13;;;11.10;99.90;;;;;;483236;246;27954;-69
2021/09/13 02:18:23;;;;;;;2.97;2.27;;;11.10;99.90;;;;;;483227;246;28086;-70
2021/09/13 02:20:25;;;;;;;2.43;2.13;;;11.00;99.90;;;;;;483195;246;28061;-69
2021/09/13 02:22:26;;;;;;;2.80;2.60;;;11.00;99.90;;;;;;483194;246;28266;-69
2021/09/13 02:24:27;;;;;;;2.37;2.27;;;11.10;99.90;;;;;;483202;246;28130;-70
2021/09/13 02:26:28;;;;;;;2.33;2.17;;;11.00;99.90;;;;;;483230;246;27979;-70
2021/09/13 02:28:30;;;;;;;2.70;2.50;;;11.00;99.90;;;;;;483197;246;28008;-70
2021/09/13 02:30:31;;;;;;;2.90;2.70;;;10.90;99.90;;;;;;483226;246;27961;-70
2021/09/13 02:32:32;;;;;;;2.10;2.00;;;10.90;99.90;;;;;;483209;246;27988;-70
2021/09/13 02:34:33;;;;;;;2.40;2.30;;;10.90;99.90;;;;;;483211;246;28587;-70
2021/09/13 02:36:35;;;;;;;2.50;2.30;;;10.90;99.90;;;;;;483175;246;28446;-70
2021/09/13 02:38:36;;;;;;;4.70;2.70;;;10.90;99.90;;;;;;483228;246;28500;-69
2021/09/13 02:40:37;;;;;;;2.50;2.40;;;10.90;99.90;;;;;;483231;246;27989;-70
2021/09/13 02:42:38;;;;;;;2.80;2.60;;;10.90;99.90;;;;;;483230;246;28130;-70
2021/09/13 02:44:40;;;;;;;2.10;2.00;;;10.90;99.90;;;;;;483191;246;28030;-69
2021/09/13 02:46:41;;;;;;;2.63;2.50;;;10.90;99.90;;;;;;483214;246;28081;-70
2021/09/13 02:48:42;;;;;;;2.73;2.57;;;10.90;99.90;;;;;;483189;246;28087;-70
2021/09/13 02:50:43;;;;;;;2.20;2.10;;;10.90;99.90;;;;;;483198;246;27995;-70
2021/09/13 02:52:45;;;;;;;2.30;2.20;;;10.90;99.90;;;;;;483173;246;28003;-69
2021/09/13 02:54:46;;;;;;;2.47;2.30;;;10.90;99.90;;;;;;483225;246;28126;-70
2021/09/13 02:56:47;;;;;;;2.80;2.60;;;10.80;99.90;;;;;;483176;246;28084;-70
2021/09/13 02:58:48;;;;;;;2.73;2.53;;;10.80;99.90;;;;;;483229;246;28585;-70
2021/09/13 03:00:50;;;;;;;2.60;2.40;;;10.90;99.90;;;;;;483218;246;28582;-70
2021/09/13 03:02:51;;;;;;;2.40;2.20;;;10.90;99.90;;;;;;483220;246;28346;-69
2021/09/13 03:04:52;;;;;;;2.20;2.10;;;10.90;99.90;;;;;;483239;246;27870;-70
2021/09/13 03:06:53;;;;;;;2.23;2.13;;;10.90;99.90;;;;;;483210;246;28156;-70
2021/09/13 03:08:55;;;;;;;2.67;2.47;;;10.90;99.90;;;;;;483220;246;27973;-70
2021/09/13 03:10:56;;;;;;;2.50;2.30;;;10.90;99.90;;;;;;483234;246;27889;-70
2021/09/13 03:12:57;;;;;;;2.47;2.30;;;10.90;99.90;;;;;;483215;246;28191;-69
2021/09/13 03:14:58;;;;;;;2.80;2.60;;;10.90;99.90;;;;;;483221;246;28086;-70
2021/09/13 03:17:00;;;;;;;2.27;2.17;;;10.90;99.90;;;;;;483276;246;28059;-69
2021/09/13 03:19:01;;;;;;;2.37;2.27;;;10.80;99.90;;;;;;483205;246;28139;-70
2021/09/13 03:21:02;;;;;;;2.20;2.10;;;10.80;99.90;;;;;;483188;246;27853;-69
2021/09/13 03:23:03;;;;;;;2.43;2.33;;;10.80;99.90;;;;;;483180;246;28530;-70
2021/09/13 03:25:05;;;;;;;2.30;2.10;;;10.90;99.90;;;;;;483196;246;28479;-69
2021/09/13 03:27:06;;;;;;;2.47;2.37;;;10.80;99.90;;;;;;483183;246;28488;-70
2021/09/13 03:29:07;;;;;;;2.90;2.70;;;10.80;99.90;;;;;;482984;246;28354;-70
2021/09/13 03:31:08;;;;;;;2.53;2.33;;;10.80;99.90;;;;;;483206;246;27940;-70
2021/09/13 03:33:10;;;;;;;2.60;2.40;;;10.80;99.90;;;;;;483166;246;27993;-70
2021/09/13 03:35:11;;;;;;;2.80;2.60;;;10.80;99.90;;;;;;483206;246;27987;-70
2021/09/13 03:37:12;;;;;;;3.47;3.17;;;10.80;99.90;;;;;;483184;246;27968;-70
2021/09/13 03:39:13;;;;;;;2.40;2.30;;;10.80;99.90;;;;;;483229;246;27964;-70
2021/09/13 03:41:15;;;;;;;2.67;2.30;;;10.80;99.90;;;;;;483194;246;28178;-70
2021/09/13 03:43:16;;;;;;;2.33;2.23;;;10.80;99.90;;;;;;483135;246;27994;-70
2021/09/13 03:45:17;;;;;;;2.90;2.70;;;10.70;99.90;;;;;;483207;246;28149;-69
2021/09/13 03:47:18;;;;;;;2.60;2.40;;;10.70;99.90;;;;;;483198;246;28510;-70
2021/09/13 03:49:20;;;;;;;2.77;2.57;;;10.60;99.90;;;;;;483189;246;28316;-69
2021/09/13 03:51:21;;;;;;;2.73;2.53;;;10.60;99.90;;;;;;483203;246;28501;-70
2021/09/13 03:53:22;;;;;;;2.70;2.50;;;10.60;99.90;;;;;;483192;246;28220;-69
2021/09/13 03:55:23;;;;;;;2.60;2.50;;;10.70;99.90;;;;;;483206;246;28085;-70
2021/09/13 03:57:25;;;;;;;5.10;2.53;;;10.60;99.90;;;;;;483190;246;28026;-69
2021/09/13 03:59:26;;;;;;;2.87;2.67;;;10.60;99.90;;;;;;483200;246;28237;-70
2021/09/13 04:01:27;;;;;;;2.57;2.37;;;10.50;99.90;;;;;;483198;246;27985;-69
2021/09/13 04:03:48;;;;;;;2.60;2.40;;;10.50;99.90;;;;;;483140;246;27909;-69
2021/09/13 04:05:51;;;;;;;2.57;2.37;;;10.40;99.90;;;;;;483098;246;29079;-69
2021/09/13 04:10:14;;;;;;;2.43;2.23;;;10.50;99.90;;;;;;483204;246;28050;-68
2021/09/13 04:12:02;;;;;;;2.23;2.13;;;10.50;99.90;;;;;;482246;246;28059;-69
2021/09/13 04:14:01;;;;;;;2.27;2.07;;;10.50;99.90;;;;;;483115;246;27684;-69
2021/09/13 04:16:03;;;;;;;2.77;2.57;;;10.50;99.90;;;;;;483215;246;28089;-69
2021/09/13 04:18:04;;;;;;;2.73;2.53;;;10.50;99.90;;;;;;483200;246;27778;-70
2021/09/13 04:20:05;;;;;;;2.20;2.10;;;10.50;99.90;;;;;;483234;246;28060;-69
2021/09/13 04:22:06;;;;;;;2.30;2.20;;;10.50;99.90;;;;;;483181;246;27934;-70
2021/09/13 04:24:08;;;;;;;2.63;2.43;;;10.50;99.90;;;;;;483209;246;27879;-69
2021/09/13 04:26:09;;;;;;;2.57;2.37;;;10.50;99.90;;;;;;483214;246;27867;-69
2021/09/13 04:28:10;;;;;;;2.40;2.20;;;10.50;99.90;;;;;;483205;246;28366;-69
2021/09/13 04:30:11;;;;;;;2.70;2.50;;;10.40;99.90;;;;;;483216;246;28421;-69
2021/09/13 04:32:13;;;;;;;3.10;2.80;;;10.50;99.90;;;;;;483220;246;28473;-70
2021/09/13 04:34:14;;;;;;;2.50;2.30;;;10.50;99.90;;;;;;483251;246;28183;-70
2021/09/13 04:36:15;;;;;;;3.03;2.83;;;10.50;99.90;;;;;;483219;246;28338;-69
2021/09/13 04:38:16;;;;;;;2.87;2.67;;;10.50;99.90;;;;;;483200;246;28112;-69
2021/09/13 04:40:18;;;;;;;2.63;2.50;;;10.50;99.90;;;;;;483233;246;27942;-69
2021/09/13 04:42:19;;;;;;;2.53;2.33;;;10.50;99.90;;;;;;483236;246;28087;-69
2021/09/13 04:44:20;;;;;;;2.80;2.60;;;10.40;99.90;;;;;;483237;246;27846;-69
2021/09/13 04:46:21;;;;;;;2.50;2.30;;;10.40;99.90;;;;;;483192;246;27980;-70
2021/09/13 04:48:24;;;;;;;3.00;2.80;;;10.40;99.90;;;;;;483217;246;27998;-70
2021/09/13 04:50:24;;;;;;;2.50;2.33;;;10.40;99.90;;;;;;483206;246;27982;-70
2021/09/13 04:52:25;;;;;;;2.60;2.50;;;10.40;99.90;;;;;;483224;246;28011;-69
2021/09/13 04:54:26;;;;;;;2.57;2.47;;;10.30;99.90;;;;;;483234;246;28113;-69
2021/09/13 04:56:28;;;;;;;2.33;2.23;;;10.30;99.90;;;;;;483212;246;28373;-69
2021/09/13 04:58:29;;;;;;;2.63;2.50;;;10.30;99.90;;;;;;483229;246;28480;-70
2021/09/13 05:00:30;;;;;;;2.77;2.60;;;10.20;99.90;;;;;;483219;246;27977;-70
2021/09/13 05:02:31;;;;;;;2.83;2.63;;;10.00;99.90;;;;;;483211;246;27997;-69
2021/09/13 05:04:33;;;;;;;2.63;2.43;;;10.00;99.90;;;;;;483217;246;28600;-69
2021/09/13 05:06:34;;;;;;;2.97;2.77;;;10.00;99.90;;;;;;483202;246;28360;-69
2021/09/13 05:08:35;;;;;;;2.50;2.30;;;10.00;99.90;;;;;;483219;246;28504;-69
2021/09/13 05:10:37;;;;;;;2.50;2.30;;;10.10;99.90;;;;;;483215;246;28473;-70
2021/09/13 05:12:38;;;;;;;2.50;2.30;;;10.10;99.90;;;;;;483220;246;28118;-69
2021/09/13 05:14:39;;;;;;;2.73;2.57;;;10.10;99.90;;;;;;483216;246;27867;-70
2021/09/13 05:16:40;;;;;;;2.47;2.37;;;10.20;99.90;;;;;;483201;246;28025;-69
2021/09/13 05:18:42;;;;;;;2.70;2.50;;;10.20;99.90;;;;;;483217;246;28151;-69
2021/09/13 05:20:43;;;;;;;4.83;2.53;;;10.30;99.90;;;;;;483229;246;27954;-69
2021/09/13 05:22:44;;;;;;;2.30;2.20;;;10.30;99.90;;;;;;483208;246;28019;-69
2021/09/13 05:24:45;;;;;;;3.60;2.40;;;10.30;99.90;;;;;;483238;246;28115;-70
2021/09/13 05:26:47;;;;;;;2.60;2.40;;;10.30;99.90;;;;;;483193;246;27900;-69
2021/09/13 05:28:48;;;;;;;2.63;2.53;;;10.30;99.90;;;;;;483231;246;28497;-69
2021/09/13 05:30:49;;;;;;;2.80;2.60;;;10.30;99.90;;;;;;483230;246;28516;-69
2021/09/13 05:32:50;;;;;;;4.50;2.23;;;10.40;99.90;;;;;;483224;246;28283;-70
2021/09/13 05:34:52;;;;;;;2.60;2.47;;;10.30;99.90;;;;;;483235;246;28562;-69
2021/09/13 05:36:53;;;;;;;2.50;2.30;;;10.40;99.90;;;;;;483028;242;28060;-70
2021/09/13 05:38:54;;;;;;;2.67;2.47;;;10.40;99.90;;;;;;483238;246;27662;-69
2021/09/13 05:40:55;;;;;;;2.77;2.57;;;10.40;99.90;;;;;;483221;246;28115;-69
2021/09/13 05:42:57;;;;;;;3.13;2.83;;;10.40;99.90;;;;;;483212;246;28120;-69
2021/09/13 05:44:58;;;;;;;2.43;2.33;;;10.40;99.90;;;;;;483225;246;28120;-69
2021/09/13 05:46:59;;;;;;;3.10;2.30;;;10.40;99.90;;;;;;483189;246;27999;-70
2021/09/13 05:49:00;;;;;;;3.20;2.90;;;10.50;99.90;;;;;;483238;246;27964;-69
2021/09/13 05:51:02;;;;;;;3.00;2.70;;;10.50;99.90;;;;;;483225;246;27950;-70
2021/09/13 05:53:03;;;;;;;2.70;2.50;;;10.50;99.90;;;;;;483197;246;27994;-69
2021/09/13 05:55:04;;;;;;;2.87;2.67;;;10.60;99.90;;;;;;483192;246;28943;-69
2021/09/13 05:57:05;;;;;;;3.07;2.87;;;10.60;99.90;;;;;;483230;246;28404;-69
2021/09/13 05:59:07;;;;;;;2.93;2.73;;;10.60;99.90;;;;;;483225;246;28478;-70
2021/09/13 06:01:08;;;;;;;2.77;2.57;;;10.60;99.90;;;;;;483225;246;27999;-69
2021/09/13 06:03:09;;;;;;;3.37;3.17;;;10.70;99.90;;;;;;483178;246;27781;-70
2021/09/13 06:05:10;;;;;;;3.77;2.87;;;10.70;99.90;;;;;;483226;246;27992;-70
2021/09/13 06:07:12;;;;;;;3.00;2.80;;;10.70;99.90;;;;;;483242;246;27855;-69
2021/09/13 06:09:13;;;;;;;3.30;3.10;;;10.80;99.90;;;;;;483241;246;27882;-69
2021/09/13 06:11:14;;;;;;;3.03;2.83;;;10.80;99.90;;;;;;483230;246;28078;-70
2021/09/13 06:13:15;;;;;;;2.93;2.73;;;10.70;99.90;;;;;;483223;246;28129;-70
2021/09/13 06:15:17;;;;;;;3.47;2.80;;;10.60;99.90;;;;;;483223;246;28359;-69
2021/09/13 06:17:18;;;;;;;2.90;2.73;;;10.60;99.90;;;;;;483211;246;28087;-70
2021/09/13 06:19:19;;;;;;;3.30;3.00;;;10.60;99.90;;;;;;483185;246;28541;-69
2021/09/13 06:21:20;;;;;;;2.70;2.50;;;10.70;99.90;;;;;;483209;246;28421;-69
2021/09/13 06:23:22;;;;;;;2.80;2.60;;;10.70;99.90;;;;;;483184;246;28516;-69
2021/09/13 06:25:23;;;;;;;3.23;3.03;;;10.80;99.90;;;;;;483231;246;28132;-69
2021/09/13 06:27:24;;;;;;;2.70;2.50;;;10.80;99.90;;;;;;483221;246;27990;-69
2021/09/13 06:29:25;;;;;;;2.90;2.70;;;10.90;99.90;;;;;;483202;246;28134;-69
2021/09/13 06:31:27;;;;;;;2.87;2.67;;;10.90;99.90;;;;;;483219;246;28020;-70
2021/09/13 06:33:29;;;;;;;3.03;2.83;;;11.00;99.90;;;;;;483183;246;28052;-70
2021/09/13 06:35:29;;;;;;;2.70;2.50;;;11.00;99.90;;;;;;483144;246;28102;-69
2021/09/13 06:37:30;;;;;;;2.80;2.70;;;11.00;99.90;;;;;;483208;246;27788;-70
2021/09/13 06:39:32;;;;;;;2.90;2.70;;;11.00;99.90;;;;;;483201;246;28173;-70
2021/09/13 06:41:33;;;;;;;3.23;3.03;;;11.10;99.90;;;;;;483242;246;27977;-70
2021/09/13 06:43:34;;;;;;;2.83;2.67;;;11.10;99.90;;;;;;483210;246;28721;-69
2021/09/13 06:45:42;;;;;;;2.70;2.50;;;11.20;99.90;;;;;;483206;246;28558;-70
2021/09/13 06:47:46;;;;;;;2.97;2.77;;;11.30;99.90;;;;;;483210;246;27744;-70
2021/09/13 06:49:47;;;;;;;2.83;2.63;;;11.40;99.90;;;;;;483182;246;28526;-70
2021/09/13 06:51:48;;;;;;;2.57;2.37;;;11.50;99.90;;;;;;483226;246;28707;-69
2021/09/13 06:53:49;;;;;;;2.93;2.73;;;11.70;99.90;;;;;;483225;246;29333;-70
2021/09/13 06:55:51;;;;;;;3.73;3.43;;;11.90;99.90;;;;;;483207;246;28079;-70
2021/09/13 06:57:52;;;;;;;7.67;3.70;;;13.00;99.90;;;;;;483216;246;28027;-69
2021/09/13 06:59:53;;;;;;;4.50;4.20;;;13.20;99.90;;;;;;483197;246;28183;-70
2021/09/13 07:01:54;;;;;;;3.90;3.53;;;13.30;99.90;;;;;;483147;246;28228;-70
2021/09/13 07:03:57;;;;;;;5.00;4.30;;;;;;;;;;482986;246;28261;-71
2021/09/13 07:05:58;;;;;;;4.80;4.17;;;13.90;99.90;;;;;;483168;246;27765;-70
2021/09/13 07:08:01;;;;;;;4.20;3.57;;;;;;;;;;483210;246;28400;-70
2021/09/13 07:10:02;;;;;;;4.33;3.93;;;14.20;99.90;;;;;;483203;246;26930;-70
2021/09/13 07:12:03;;;;;;;3.83;3.40;;;14.30;99.90;;;;;;483211;246;29066;-70
2021/09/13 07:14:05;;;;;;;5.70;4.17;;;14.50;99.90;;;;;;483196;246;28930;-70
2021/09/13 07:16:06;;;;;;;5.30;3.77;;;14.60;99.90;;;;;;483165;246;28795;-69
2021/09/13 07:18:08;;;;;;;5.00;3.60;;;;;;;;;;483213;246;28606;-70
2021/09/13 07:20:09;;;;;;;5.40;3.80;;;14.70;99.90;;;;;;483199;246;26658;-70
2021/09/13 07:22:11;;;;;;;5.10;4.60;;;14.80;99.90;;;;;;483182;246;28391;-71
2021/09/13 07:24:12;;;;;;;5.97;4.30;;;14.80;99.90;;;;;;483176;246;28270;-70
2021/09/13 07:26:13;;;;;;;5.40;4.40;;;14.90;99.90;;;;;;483203;246;28893;-72
2021/09/13 07:28:15;;;;;;;4.47;4.07;;;15.00;99.90;;;;;;483195;246;29378;-71
2021/09/13 07:30:16;;;;;;;4.07;3.67;;;15.10;99.90;;;;;;483103;246;28699;-70
2021/09/13 07:32:17;;;;;;;5.03;4.50;;;15.10;99.90;;;;;;483226;246;28475;-70
2021/09/13 07:34:18;;;;;;;5.23;3.70;;;15.20;99.90;;;;;;483197;246;28465;-70
2021/09/13 07:36:19;;;;;;;6.87;4.50;;;15.30;99.90;;;;;;483203;246;28452;-70
2021/09/13 07:38:21;;;;;;;4.90;4.00;;;15.30;99.90;;;;;;483190;246;28953;-71
2021/09/13 07:40:22;;;;;;;4.43;4.10;;;15.40;99.90;;;;;;483191;246;28520;-72
2021/09/13 07:42:23;;;;;;;4.07;3.73;;;15.40;99.90;;;;;;483271;246;28385;-72
2021/09/13 07:44:24;;;;;;;5.53;3.13;;;15.50;99.90;;;;;;483181;246;28950;-71
2021/09/13 07:46:26;;;;;;;4.23;3.50;;;15.60;99.90;;;;;;483120;246;28590;-69
2021/09/13 07:48:27;;;;;;;4.20;3.83;;;15.60;99.90;;;;;;483150;246;28862;-70
2021/09/13 07:50:28;;;;;;;3.70;3.40;;;15.60;99.90;;;;;;483165;246;29349;-72
2021/09/13 07:52:29;;;;;;;5.20;3.70;;;15.70;99.90;;;;;;483201;246;29074;-72
2021/09/13 07:54:31;;;;;;;4.07;3.40;;;15.70;99.90;;;;;;483202;246;29388;-72
2021/09/13 07:56:32;;;;;;;3.90;3.60;;;15.70;99.90;;;;;;483225;246;28585;-70
2021/09/13 07:58:33;;;;;;;4.43;3.47;;;15.80;99.90;;;;;;483189;246;28942;-72
2021/09/13 08:00:34;;;;;;;6.03;3.37;;;15.90;99.90;;;;;;483158;246;28851;-72
2021/09/13 08:02:36;;;;;;;4.10;3.70;;;16.10;99.90;;;;;;483205;246;28598;-71
2021/09/13 08:04:37;;;;;;;3.50;3.20;;;16.10;99.90;;;;;;483204;246;28867;-72
2021/09/13 08:06:38;;;;;;;4.93;3.50;;;16.10;99.90;;;;;;483194;246;28871;-72
2021/09/13 08:08:39;;;;;;;3.30;3.10;;;16.20;99.90;;;;;;483204;246;29062;-72
2021/09/13 08:10:41;;;;;;;3.80;3.43;;;16.20;99.90;;;;;;483195;246;28926;-70
2021/09/13 08:12:42;;;;;;;5.80;3.37;;;16.30;99.90;;;;;;483199;246;28879;-71
2021/09/13 08:14:43;;;;;;;4.03;3.00;;;16.40;99.90;;;;;;483137;246;29408;-69
2021/09/13 08:16:44;;;;;;;4.03;3.73;;;16.50;99.90;;;;;;483088;246;29350;-70
2021/09/13 08:18:46;;;;;;;3.97;3.63;;;16.60;99.90;;;;;;483130;246;29461;-72
2021/09/13 08:20:47;;;;;;;6.70;3.70;;;16.70;99.90;;;;;;483127;246;28855;-71
2021/09/13 08:22:48;;;;;;;3.40;3.10;;;16.70;99.90;;;;;;483162;246;28901;-71
2021/09/13 08:24:51;;;;;;;4.57;3.17;;;16.70;99.90;;;;;;483116;246;28883;-71
2021/09/13 08:26:51;;;;;;;3.33;3.10;;;16.80;99.90;;;;;;483093;246;28914;-71
2021/09/13 08:28:52;;;;;;;3.23;2.83;;;16.90;99.90;;;;;;483170;246;28984;-71
2021/09/13 08:30:53;;;;;;;4.20;3.80;;;16.90;99.90;;;;;;483152;246;28860;-71
2021/09/13 08:32:54;;;;;;;3.40;3.20;;;16.90;99.90;;;;;;483189;246;28889;-71
2021/09/13 08:34:56;;;;;;;4.13;3.73;;;17.00;99.90;;;;;;483219;246;28862;-71
2021/09/13 08:36:57;;;;;;;4.50;3.40;;;17.10;99.90;;;;;;483145;246;28966;-71
2021/09/13 08:38:58;;;;;;;3.70;3.40;;;17.20;99.90;;;;;;483195;246;29831;-71
2021/09/13 08:40:59;;;;;;;3.47;3.17;;;17.30;99.90;;;;;;483174;246;29292;-71
2021/09/13 08:43:01;;;;;;;4.00;3.60;;;17.30;99.90;;;;;;483212;246;29325;-71
2021/09/13 08:45:02;;;;;;;3.97;3.63;;;17.30;99.90;;;;;;483175;246;28882;-71
2021/09/13 08:47:19;;;;;;;3.30;3.10;;;17.50;99.90;;;;;;483208;246;28881;-71
2021/09/13 08:49:10;;;;;;;3.90;3.17;;;17.50;99.90;;;;;;482327;246;28970;-71
2021/09/13 08:53:20;;;;;;;3.47;3.13;;;17.50;99.90;;;;;;483201;246;29308;-71
2021/09/13 08:55:17;;;;;;;3.13;2.93;;;17.60;99.90;;;;;;482945;246;28882;-70
2021/09/13 08:57:19;;;;;;;3.80;3.50;;;17.60;99.90;;;;;;483173;246;28908;-70
2021/09/13 08:59:24;;;;;;;3.87;3.50;;;17.60;99.90;;;;;;483180;246;28862;-72
2021/09/13 09:01:24;;;;;;;3.60;3.33;;;17.70;99.90;;;;;;483106;246;29483;-71
2021/09/13 09:03:24;;;;;;;3.63;3.33;;;17.70;99.90;;;;;;483189;246;29288;-71
2021/09/13 09:05:26;;;;;;;5.20;3.67;;;17.60;99.90;;;;;;483211;246;29317;-72
2021/09/13 09:07:28;;;;;;;5.73;3.77;;;17.80;99.90;;;;;;483201;246;28926;-71
2021/09/13 09:09:28;;;;;;;3.87;3.50;;;17.80;99.90;;;;;;483179;246;29046;-71
2021/09/13 09:11:29;;;;;;;3.50;3.30;;;17.70;99.90;;;;;;483131;246;28870;-71
2021/09/13 09:13:31;;;;;;;3.83;3.50;;;17.90;99.90;;;;;;483202;246;28850;-71
2021/09/13 09:15:32;;;;;;;3.40;3.10;;;18.00;99.90;;;;;;483150;246;28873;-71
2021/09/13 09:17:33;;;;;;;3.50;3.27;;;18.00;99.90;;;;;;483172;246;28893;-71
2021/09/13 09:19:35;;;;;;;3.73;3.43;;;18.30;99.90;;;;;;483180;246;28846;-73
2021/09/13 09:21:36;;;;;;;4.77;3.40;;;18.20;99.90;;;;;;483174;246;28878;-71
2021/09/13 09:23:37;;;;;;;3.50;3.20;;;18.20;99.90;;;;;;483148;246;28842;-71
2021/09/13 09:25:41;;;;;;;3.20;2.90;;;18.40;99.90;;;;;;483191;246;29362;-71
2021/09/13 09:27:39;;;;;;;3.37;3.17;;;18.40;99.90;;;;;;483044;246;29347;-71
2021/09/13 09:29:41;;;;;;;3.47;3.17;;;18.50;99.90;;;;;;483215;246;29303;-71
2021/09/13 09:31:42;;;;;;;3.33;3.03;;;18.50;99.90;;;;;;483209;246;28894;-71
2021/09/13 09:33:43;;;;;;;3.40;3.20;;;18.50;99.90;;;;;;483181;246;28933;-71
2021/09/13 09:35:45;;;;;;;3.70;3.40;;;18.50;99.90;;;;;;483212;246;28928;-71
2021/09/13 09:37:46;;;;;;;3.10;2.90;;;18.50;99.90;;;;;;483230;246;28958;-71
2021/09/13 09:39:53;;;;;;;4.17;2.93;;;18.60;99.90;;;;;;483200;246;28927;-71
2021/09/13 09:41:51;;;;;;;3.50;3.20;;;18.80;99.90;;;;;;483046;246;28865;-71
2021/09/13 09:43:53;;;;;;;3.17;2.87;;;18.90;99.90;;;;;;483217;246;28870;-71
2021/09/13 09:45:54;;;;;;;2.70;2.50;;;18.80;99.90;;;;;;483244;246;28841;-71
2021/09/13 09:47:55;;;;;;;2.77;2.57;;;18.80;99.90;;;;;;483198;246;28943;-71
2021/09/13 09:49:56;;;;;;;2.83;2.63;;;19.00;99.90;;;;;;483197;246;28907;-71
2021/09/13 09:51:57;;;;;;;3.73;3.43;;;18.90;99.90;;;;;;483158;246;29292;-69
2021/09/13 09:53:59;;;;;;;3.50;3.20;;;19.00;99.90;;;;;;482815;246;29436;-71
2021/09/13 09:56:00;;;;;;;3.30;3.00;;;19.00;99.90;;;;;;482333;246;29738;-72
2021/09/13 09:58:01;;;;;;;18.90;3.23;;;18.90;99.90;;;;;;482577;246;28976;-72
2021/09/13 10:00:02;;;;;;;6.63;3.00;;;18.80;99.90;;;;;;483060;246;28918;-70
2021/09/13 10:02:04;;;;;;;3.63;2.77;;;19.00;99.90;;;;;;483185;246;28858;-71
2021/09/13 10:04:05;;;;;;;3.10;2.90;;;19.00;99.90;;;;;;483197;246;28959;-71
2021/09/13 10:06:06;;;;;;;3.00;2.80;;;18.90;99.90;;;;;;483205;246;28924;-71
2021/09/13 10:08:07;;;;;;;2.97;2.63;;;19.00;99.90;;;;;;483218;246;28857;-71
2021/09/13 10:10:09;;;;;;;4.10;2.90;;;19.10;99.90;;;;;;483173;246;28915;-71
2021/09/13 10:12:10;;;;;;;7.83;2.90;;;19.40;99.90;;;;;;483185;246;28942;-70
2021/09/13 10:14:11;;;;;;;3.30;3.10;;;19.50;99.90;;;;;;483224;246;28968;-69
2021/09/13 10:16:12;;;;;;;3.00;2.80;;;19.40;99.90;;;;;;483221;246;30088;-69
2021/09/13 10:18:14;;;;;;;2.90;2.60;;;19.30;99.90;;;;;;483242;246;29325;-70
2021/09/13 10:20:15;;;;;;;3.23;2.97;;;19.50;99.90;;;;;;483235;246;29365;-69
2021/09/13 10:22:16;;;;;;;3.73;3.20;;;19.50;99.90;;;;;;483212;246;28856;-71
2021/09/13 10:24:17;;;;;;;2.70;2.60;;;19.50;99.90;;;;;;483216;246;28879;-70
2021/09/13 10:26:19;;;;;;;2.90;2.70;;;19.50;99.90;;;;;;483201;246;28903;-72
2021/09/13 10:28:20;;;;;;;3.20;2.90;;;19.30;99.90;;;;;;483226;246;28861;-71
2021/09/13 10:30:21;;;;;;;3.20;2.90;;;19.60;99.90;;;;;;483225;246;28955;-70
2021/09/13 10:32:22;;;;;;;3.77;3.00;;;19.50;99.90;;;;;;480606;238;28878;-71
2021/09/13 10:34:24;;;;;;;4.70;2.97;;;19.50;99.90;;;;;;484832;245;28755;-72
2021/09/13 10:36:25;;;;;;;2.93;2.60;;;19.70;99.90;;;;;;484800;244;28857;-72